createdAt,value
2024-02-16T00:00:46.762Z,1007.635
2024-02-16T00:05:49.210Z,1007.586
2024-02-16T00:10:47.512Z,1007.706
2024-02-16T00:15:47.896Z,1007.528
2024-02-16T00:20:48.672Z,1007.588
2024-02-16T00:25:48.406Z,1007.645
2024-02-16T00:30:49.560Z,1007.81
2024-02-16T00:35:52.165Z,1007.904
2024-02-16T00:40:54.808Z,1007.94
2024-02-16T00:45:55.334Z,1007.918
2024-02-16T00:50:55.951Z,1007.777
2024-02-16T00:55:53.330Z,1007.76
2024-02-16T01:00:53.667Z,1007.842
2024-02-16T01:05:55.581Z,1007.674
2024-02-16T01:10:56.196Z,1007.526
2024-02-16T01:15:54.388Z,1007.608
2024-02-16T01:20:56.338Z,1007.485
2024-02-16T01:25:54.024Z,1007.431
2024-02-16T01:30:56.871Z,1007.508
2024-02-16T01:35:55.022Z,1007.425
2024-02-16T01:40:54.381Z,1007.449
2024-02-16T01:45:53.173Z,1007.373
2024-02-16T01:50:52.818Z,1007.44
2024-02-16T01:55:53.866Z,1007.271
2024-02-16T02:00:51.201Z,1007.196
2024-02-16T02:05:53.964Z,1007.137
2024-02-16T02:10:53.396Z,1007.093
2024-02-16T02:15:54.370Z,1006.984
2024-02-16T02:20:53.860Z,1007.102
2024-02-16T02:25:51.170Z,1006.878
2024-02-16T02:30:47.568Z,1006.972
2024-02-16T02:35:50.197Z,1006.948
2024-02-16T02:40:48.885Z,1007.086
2024-02-16T02:45:50.398Z,1006.845
2024-02-16T02:50:46.826Z,1006.69
2024-02-16T02:55:47.551Z,1006.956
2024-02-16T03:01:29.708Z,1006.976
2024-02-16T03:05:47.943Z,1006.761
2024-02-16T03:10:45.083Z,1006.824
2024-02-16T03:15:47.794Z,1006.801
2024-02-16T03:20:46.041Z,1006.799
2024-02-16T03:25:48.031Z,1006.853
2024-02-16T03:30:48.180Z,1006.795
2024-02-16T03:35:45.981Z,1006.82
2024-02-16T03:40:48.362Z,1006.909
2024-02-16T03:45:48.988Z,1006.98
2024-02-16T03:50:49.179Z,1007.024
2024-02-16T03:55:46.731Z,1007.094
2024-02-16T04:00:46.563Z,1007.113
2024-02-16T04:05:50.234Z,1007.011
2024-02-16T04:10:51.733Z,1007.146
2024-02-16T04:15:55.209Z,1007.178
2024-02-16T04:20:49.807Z,1007.029
2024-02-16T04:25:51.524Z,1007.101
2024-02-16T04:30:52.280Z,1007.127
2024-02-16T04:35:49.459Z,1007.291
2024-02-16T04:40:54.369Z,1007.092
2024-02-16T04:45:55.382Z,1007.242
2024-02-16T04:50:51.782Z,1007.215
2024-02-16T04:55:52.893Z,1007.363
2024-02-16T05:00:56.688Z,1007.115
2024-02-16T05:05:52.312Z,1007.24
2024-02-16T05:10:51.963Z,1007.271
2024-02-16T05:15:54.882Z,1007.248
2024-02-16T05:20:52.795Z,1007.14
2024-02-16T05:25:53.502Z,1007.176
2024-02-16T05:30:45.670Z,1007.299
2024-02-16T05:35:47.919Z,1007.112
2024-02-16T05:40:50.833Z,1007.057
2024-02-16T05:45:51.498Z,1007.266
2024-02-16T05:50:52.577Z,1007.342
2024-02-16T05:55:49.429Z,1007.337
2024-02-16T06:00:50.882Z,1007.41
2024-02-16T06:05:48.376Z,1007.446
2024-02-16T06:10:48.646Z,1007.479
2024-02-16T06:15:50.149Z,1007.696
2024-02-16T06:20:51.334Z,1007.63
2024-02-16T06:25:48.983Z,1007.598
2024-02-16T06:30:49.150Z,1007.603
2024-02-16T06:35:49.460Z,1007.763
2024-02-16T06:40:49.499Z,1007.748
2024-02-16T06:45:49.568Z,1007.774
2024-02-16T06:50:49.865Z,1007.904
2024-02-16T06:55:50.018Z,1007.929
2024-02-16T07:00:49.335Z,1008.007
2024-02-16T07:05:49.422Z,1008.015
2024-02-16T07:10:49.446Z,1008.098
2024-02-16T07:15:49.609Z,1008.011
2024-02-16T07:20:51.458Z,1008.164
2024-02-16T07:25:50.490Z,1008.004
2024-02-16T07:30:49.606Z,1008.172
2024-02-16T07:35:53.312Z,1008.089
2024-02-16T07:40:57.502Z,1008.121
2024-02-16T07:45:57.502Z,1008.064
2024-02-16T07:50:59.201Z,1008.073
2024-02-16T07:55:55.602Z,1007.977
2024-02-16T08:00:55.009Z,1007.978
2024-02-16T08:05:58.185Z,1007.978
2024-02-16T08:10:58.925Z,1008.055
2024-02-16T08:16:00.385Z,1008.041
2024-02-16T08:20:57.251Z,1008.125
2024-02-16T08:25:59.537Z,1008.331
2024-02-16T08:30:58.563Z,1008.179
2024-02-16T08:36:00.155Z,1008.188
2024-02-16T08:40:57.583Z,1008.273
2024-02-16T08:46:01.184Z,1008.288
2024-02-16T08:50:58.842Z,1008.195
2024-02-16T08:56:01.824Z,1008.333
2024-02-16T09:00:55.417Z,1008.367
2024-02-16T09:06:00.333Z,1008.247
2024-02-16T09:10:55.077Z,1008.365
2024-02-16T09:16:00.198Z,1008.224
2024-02-16T09:21:01.934Z,1008.273
2024-02-16T09:25:51.183Z,1008.137
2024-02-16T09:30:57.345Z,1008.329
2024-02-16T09:35:54.060Z,1008.488
2024-02-16T09:40:51.658Z,1008.281
2024-02-16T09:45:54.008Z,1008.52
2024-02-16T09:50:51.191Z,1008.502
2024-02-16T09:55:53.301Z,1008.495
2024-02-16T10:00:58.384Z,1008.512
2024-02-16T10:05:57.337Z,1008.373
2024-02-16T10:10:52.636Z,1008.493
2024-02-16T10:15:54.883Z,1008.352
2024-02-16T10:20:55.364Z,1008.316
2024-02-16T10:25:57.708Z,1008.357
2024-02-16T10:30:53.154Z,1008.376
2024-02-16T10:35:58.269Z,1008.29
2024-02-16T10:40:53.593Z,1008.142
2024-02-16T10:46:08.003Z,1008.036
2024-02-16T10:50:55.445Z,1008.158
2024-02-16T10:55:54.706Z,1007.963
2024-02-16T11:00:58.267Z,1008.036
2024-02-16T11:05:52.092Z,1007.911
2024-02-16T11:10:57.505Z,1007.974
2024-02-16T11:15:58.551Z,1007.92
2024-02-16T11:21:02.242Z,1007.911
2024-02-16T11:25:59.492Z,1007.903
2024-02-16T11:31:00.764Z,1008.062
2024-02-16T11:35:58.121Z,1007.913
2024-02-16T11:40:56.056Z,1007.819
2024-02-16T11:45:56.154Z,1007.731
2024-02-16T11:51:03.495Z,1007.722
2024-02-16T11:55:58.074Z,1007.684
2024-02-16T12:00:59.368Z,1007.523
2024-02-16T12:05:58.703Z,1007.616
2024-02-16T12:10:55.837Z,1007.542
2024-02-16T12:16:00.139Z,1007.606
2024-02-16T12:20:59.490Z,1007.545
2024-02-16T12:25:56.520Z,1007.507
2024-02-16T12:30:57.997Z,1007.412
2024-02-16T12:35:59.017Z,1007.305
2024-02-16T12:40:51.300Z,1007.534
2024-02-16T12:45:50.184Z,1007.277
2024-02-16T12:50:55.054Z,1007.269
2024-02-16T12:55:51.379Z,1007.263
2024-02-16T13:00:54.244Z,1007.136
2024-02-16T13:05:50.486Z,1007.125
2024-02-16T13:10:51.506Z,1007.144
2024-02-16T13:15:52.664Z,1006.894
2024-02-16T13:20:52.803Z,1007.004
2024-02-16T13:25:53.198Z,1007.177
2024-02-16T13:30:51.155Z,1007.061
2024-02-16T13:35:49.262Z,1007.02
2024-02-16T13:40:53.918Z,1006.984
2024-02-16T13:45:51.639Z,1007.066
2024-02-16T13:50:51.575Z,1006.95
2024-02-16T13:55:50.746Z,1006.961
2024-02-16T14:00:53.422Z,1006.942
2024-02-16T14:05:51.283Z,1006.666
2024-02-16T14:10:51.979Z,1007.022
2024-02-16T14:15:49.843Z,1006.964
2024-02-16T14:20:51.077Z,1007
2024-02-16T14:25:50.950Z,1007.026
2024-02-16T14:31:07.149Z,1006.9
2024-02-16T14:35:50.776Z,1006.775
2024-02-16T14:40:56.068Z,1006.861
2024-02-16T14:45:51.858Z,1006.611
2024-02-16T14:51:01.518Z,1006.82
2024-02-16T14:55:57.517Z,1006.552
2024-02-16T15:01:00.540Z,1006.603
2024-02-16T15:05:57.180Z,1006.747
2024-02-16T15:10:56.941Z,1006.803
2024-02-16T15:15:53.249Z,1006.683
2024-02-16T15:20:54.736Z,1006.672
2024-02-16T15:25:56.438Z,1006.673
2024-02-16T15:30:57.589Z,1006.709
2024-02-16T15:35:55.290Z,1006.916
2024-02-16T15:40:56.285Z,1006.812
2024-02-16T15:45:52.999Z,1006.643
2024-02-16T15:50:55.450Z,1006.898
2024-02-16T15:55:51.723Z,1006.762
2024-02-16T16:00:55.947Z,1006.736
2024-02-16T16:05:50.032Z,1006.706
2024-02-16T16:10:47.260Z,1006.882
2024-02-16T16:15:47.390Z,1006.997
2024-02-16T16:20:49.002Z,1007.031
2024-02-16T16:25:47.553Z,1007.139
2024-02-16T16:30:45.739Z,1007.052
2024-02-16T16:35:50.418Z,1007.176
2024-02-16T16:40:51.683Z,1007.32
2024-02-16T16:45:47.931Z,1007.371
2024-02-16T16:50:45.633Z,1007.306
2024-02-16T16:55:46.906Z,1007.511
2024-02-16T17:00:46.893Z,1007.491
2024-02-16T17:05:47.161Z,1007.434
2024-02-16T17:10:45.214Z,1007.701
2024-02-16T17:15:46.471Z,1007.556
2024-02-16T17:20:47.852Z,1007.588
2024-02-16T17:25:46.973Z,1007.686
2024-02-16T17:30:46.210Z,1007.517
2024-02-16T17:35:45.890Z,1007.76
2024-02-16T17:40:46.776Z,1007.817
2024-02-16T17:45:48.246Z,1007.843
2024-02-16T17:50:45.777Z,1007.974
2024-02-16T17:55:46.642Z,1007.937
2024-02-16T18:00:47.065Z,1007.987
2024-02-16T18:05:45.190Z,1007.997
2024-02-16T18:10:45.373Z,1007.898
2024-02-16T18:15:45.411Z,1007.83
2024-02-16T18:20:48.208Z,1007.841
2024-02-16T18:25:46.502Z,1007.921
2024-02-16T18:30:52.954Z,1007.951
2024-02-16T18:35:49.995Z,1007.804
2024-02-16T18:40:53.448Z,1007.934
2024-02-16T18:45:50.237Z,1007.828
2024-02-16T18:50:52.368Z,1007.892
2024-02-16T18:55:53.223Z,1007.898
2024-02-16T19:00:53.158Z,1007.885
2024-02-16T19:05:52.813Z,1007.929
2024-02-16T19:10:53.849Z,1007.847
2024-02-16T19:15:54.116Z,1007.903
2024-02-16T19:20:50.914Z,1008.126
2024-02-16T19:25:53.120Z,1008.112
2024-02-16T19:30:51.754Z,1008.269
2024-02-16T19:35:55.386Z,1008.285
2024-02-16T19:40:53.992Z,1008.241
2024-02-16T19:46:02.084Z,1008.254
2024-02-16T19:50:49.234Z,1008.328
2024-02-16T19:55:45.323Z,1008.29
2024-02-16T20:00:48.066Z,1008.219
2024-02-16T20:05:51.780Z,1008.318
2024-02-16T20:10:47.516Z,1008.251
2024-02-16T20:15:46.900Z,1008.246
2024-02-16T20:20:48.472Z,1008.231
2024-02-16T20:25:48.994Z,1008.334
2024-02-16T20:30:50.250Z,1008.249
2024-02-16T20:35:47.671Z,1008.368
2024-02-16T20:40:50.338Z,1008.454
2024-02-16T20:45:51.065Z,1008.389
2024-02-16T20:50:45.274Z,1008.332
2024-02-16T20:55:47.618Z,1008.438
2024-02-16T21:00:47.061Z,1008.356
2024-02-16T21:05:46.799Z,1008.552
2024-02-16T21:10:47.730Z,1008.361
2024-02-16T21:15:51.583Z,1008.452
2024-02-16T21:20:45.808Z,1008.565
2024-02-16T21:25:46.025Z,1008.653
2024-02-16T21:30:51.932Z,1008.508
2024-02-16T21:35:48.373Z,1008.678
2024-02-16T21:40:46.427Z,1008.632
2024-02-16T21:45:50.273Z,1008.715
2024-02-16T21:50:45.388Z,1008.719
2024-02-16T21:55:50.213Z,1008.958
2024-02-16T22:00:59.831Z,1008.905
2024-02-16T22:05:51.287Z,1008.931
2024-02-16T22:10:51.740Z,1009.021
2024-02-16T22:15:54.319Z,1008.928
2024-02-16T22:20:55.073Z,1009.064
2024-02-16T22:25:54.467Z,1008.959
2024-02-16T22:30:52.947Z,1008.992
2024-02-16T22:35:54.542Z,1009.089
2024-02-16T22:40:53.410Z,1008.986
2024-02-16T22:45:54.166Z,1009.096
2024-02-16T22:50:53.779Z,1009.11
2024-02-16T22:55:52.848Z,1009.131
2024-02-16T23:01:08.915Z,1009.134
2024-02-16T23:05:51.159Z,1009.07
2024-02-16T23:10:53.788Z,1009.026
2024-02-16T23:15:54.830Z,1009.027
2024-02-16T23:20:57.097Z,1009.078
2024-02-16T23:25:51.472Z,1009.051
2024-02-16T23:30:53.994Z,1008.916
2024-02-16T23:35:56.765Z,1008.931
2024-02-16T23:40:52.667Z,1008.973
2024-02-16T23:45:55.024Z,1009.052
2024-02-16T23:50:54.312Z,1008.983
2024-02-16T23:55:50.180Z,1008.982
